Time,TemperatureF,DewpointF,PressureIn,WindDirection,WindDirectionDegrees,WindSpeedMPH,WindSpeedGustMPH,Humidity,HourlyPrecipIn,Conditions,Clouds,dailyrainin,SolarRadiationWatts/m^2,SoftwareType,DateUTC
2013-01-22 00:02:00,-22.5,-28.1,30.19,WNW,301,0.0,0.0,74,0.00,-RA,,0.00,0.0,WeatherDisplay:10.37,2013-01-22 06:02:00,
2013-01-22 00:07:00,-22.7,-28.3,30.19,WNW,300,0.0,0.0,74,0.00,-RA,,0.00,0.0,WeatherDisplay:10.37,2013-01-22 06:07:00,
2013-01-22 00:12:00,-22.8,-28.4,30.19,WNW,300,0.0,0.0,74,0.00,-RA,,0.00,0.0,WeatherDisplay:10.37,2013-01-22 06:12:00,
2013-01-22 00:17:00,-23.0,-28.6,30.19,WNW,301,0.0,0.0,74,0.00,-RA,,0.00,0.0,WeatherDisplay:10.37,2013-01-22 06:17:00,
2013-01-22 00:22:00,-23.1,-28.7,30.20,WNW,301,0.0,0.0,74,0.00,-RA,,0.00,0.0,WeatherDisplay:10.37,2013-01-22 06:22:00,
2013-01-22 00:27:00,-23.3,-28.9,30.20,WNW,301,0.0,0.0,74,0.00,-RA,,0.00,0.0,WeatherDisplay:10.37,2013-01-22 06:27:00,
2013-01-22 00:32:00,-23.5,-29.1,30.20,WNW,300,0.0,0.0,74,0.00,-RA,,0.00,0.0,WeatherDisplay:10.37,2013-01-22 06:32:00,
2013-01-22 00:37:00,-23.6,-29.2,30.20,WNW,301,0.0,0.0,74,0.00,-RA,,0.00,0.0,WeatherDisplay:10.37,2013-01-22 06:37:00,
2013-01-22 00:42:00,-23.8,-29.4,30.20,WNW,301,0.0,0.0,74,0.00,-RA,,0.00,0.0,WeatherDisplay:10.37,2013-01-22 06:42:00,
2013-01-22 00:47:00,-23.9,-29.5,30.20,WNW,302,0.0,0.0,74,0.00,-RA,,0.00,0.0,WeatherDisplay:10.37,2013-01-22 06:47:00,
2013-01-22 00:52:00,-24.1,-29.7,30.20,WNW,301,0.0,0.0,74,0.00,-RA,,0.00,0.0,WeatherDisplay:10.37,2013-01-22 06:52:00,
2013-01-22 00:57:00,-24.2,-30.0,30.20,WNW,302,0.0,0.0,73,0.00,-RA,,0.00,0.0,WeatherDisplay:10.37,2013-01-22 06:57:00,
2013-01-22 01:02:00,-24.3,-29.9,30.20,WNW,300,0.0,0.0,74,0.00,-RA,,0.00,0.0,WeatherDisplay:10.37,2013-01-22 07:02:00,
2013-01-22 01:07:00,-24.4,-30.2,30.20,WNW,300,0.0,0.0,73,0.00,-RA,,0.00,0.0,WeatherDisplay:10.37,2013-01-22 07:07:00,
2013-01-22 01:12:00,-24.6,-30.2,30.20,WNW,300,0.0,0.0,74,0.00,-RA,,0.00,0.0,WeatherDisplay:10.37,2013-01-22 07:12:00,
2013-01-22 01:17:00,-24.7,-30.3,30.20,WNW,302,0.0,0.0,74,0.00,-RA,,0.00,0.0,WeatherDisplay:10.37,2013-01-22 07:17:00,
2013-01-22 01:22:00,-24.8,-30.4,30.20,WNW,301,0.0,0.0,74,0.00,-RA,,0.00,0.0,WeatherDisplay:10.37,2013-01-22 07:22:00,
2013-01-22 01:27:00,-24.9,-30.5,30.20,WNW,301,0.0,0.0,74,0.00,-RA,,0.00,0.0,WeatherDisplay:10.37,2013-01-22 07:27:00,
2013-01-22 01:32:00,-25.0,-30.8,30.20,WNW,301,0.0,0.0,73,0.00,-RA,,0.00,0.0,WeatherDisplay:10.37,2013-01-22 07:32:00,
2013-01-22 01:37:00,-25.2,-31.0,30.20,WNW,301,0.0,0.0,73,0.00,-RA,,0.00,0.0,WeatherDisplay:10.37,2013-01-22 07:37:00,
2013-01-22 01:42:00,-25.2,-31.0,30.20,WNW,300,0.0,0.0,73,0.00,-RA,,0.00,0.0,WeatherDisplay:10.37,2013-01-22 07:42:00,
2013-01-22 01:47:00,-25.4,-31.2,30.20,WNW,302,0.0,0.0,73,0.00,-RA,,0.00,0.0,WeatherDisplay:10.37,2013-01-22 07:47:00,
2013-01-22 01:52:00,-25.5,-31.3,30.20,WNW,300,0.0,0.0,73,0.00,-RA,,0.00,0.0,WeatherDisplay:10.37,2013-01-22 07:52:00,
2013-01-22 01:57:00,-25.6,-31.4,30.20,WNW,302,0.0,0.0,73,0.00,-RA,,0.00,0.0,WeatherDisplay:10.37,2013-01-22 07:57:00,
2013-01-22 02:02:00,-25.7,-31.5,30.21,WNW,302,0.0,0.0,73,0.00,-RA,,0.00,0.0,WeatherDisplay:10.37,2013-01-22 08:02:00,
2013-01-22 02:07:00,-25.9,-31.7,30.21,WNW,301,0.0,0.0,73,0.00,-RA,,0.00,0.0,WeatherDisplay:10.37,2013-01-22 08:07:00,
2013-01-22 02:12:00,-25.9,-31.7,30.21,WNW,301,0.0,0.0,73,0.00,-RA,,0.00,0.0,WeatherDisplay:10.37,2013-01-22 08:12:00,
2013-01-22 02:17:00,-26.0,-31.8,30.21,WNW,300,0.0,0.0,73,0.00,-RA,,0.00,0.0,WeatherDisplay:10.37,2013-01-22 08:17:00,
2013-01-22 02:22:00,-26.1,-31.9,30.21,WNW,302,0.0,0.0,73,0.00,-RA,,0.00,0.0,WeatherDisplay:10.37,2013-01-22 08:22:00,
2013-01-22 02:27:00,-26.2,-32.0,30.21,WNW,301,0.0,0.0,73,0.00,-RA,,0.00,0.0,WeatherDisplay:10.37,2013-01-22 08:27:00,
2013-01-22 02:32:00,-26.3,-32.1,30.21,WNW,301,0.0,0.0,73,0.00,-RA,,0.00,0.0,WeatherDisplay:10.37,2013-01-22 08:32:00,
2013-01-22 02:38:00,-26.4,-31.9,30.21,WNW,302,0.0,0.0,74,0.00,-RA,,0.00,0.0,WeatherDisplay:10.37,2013-01-22 08:38:00,
2013-01-22 02:43:00,-26.5,-32.0,30.21,WNW,301,0.0,0.0,74,0.00,-RA,,0.00,0.0,WeatherDisplay:10.37,2013-01-22 08:43:00,
2013-01-22 02:48:00,-26.5,-32.0,30.21,WNW,301,0.0,0.0,74,0.00,-RA,,0.00,0.0,WeatherDisplay:10.37,2013-01-22 08:48:00,
2013-01-22 02:53:00,-26.6,-32.1,30.21,WNW,300,0.0,0.0,74,0.00,-RA,,0.00,0.0,WeatherDisplay:10.37,2013-01-22 08:53:00,
2013-01-22 02:58:00,-26.7,-32.2,30.21,WNW,301,0.0,0.0,74,0.00,-RA,,0.00,0.0,WeatherDisplay:10.37,2013-01-22 08:58:00,
2013-01-22 03:03:00,-26.8,-32.3,30.21,WNW,300,0.0,0.0,74,0.00,-RA,,0.00,0.0,WeatherDisplay:10.37,2013-01-22 09:03:00,
2013-01-22 03:08:00,-26.8,-32.3,30.21,WNW,301,0.0,0.0,74,0.00,-RA,,0.00,0.0,WeatherDisplay:10.37,2013-01-22 09:08:00,
2013-01-22 03:13:00,-26.8,-32.3,30.21,WNW,302,0.0,0.0,74,0.00,-RA,,0.00,0.0,WeatherDisplay:10.37,2013-01-22 09:13:00,
2013-01-22 03:18:00,-26.9,-32.4,30.22,WNW,301,0.0,0.0,74,0.00,-RA,,0.00,0.0,WeatherDisplay:10.37,2013-01-22 09:18:00,
2013-01-22 03:23:00,-27.0,-32.5,30.22,WNW,301,0.0,0.0,74,0.00,-RA,,0.00,0.0,WeatherDisplay:10.37,2013-01-22 09:23:00,
2013-01-22 03:28:00,-27.0,-32.5,30.22,WNW,301,0.0,0.0,74,0.00,-RA,,0.00,0.0,WeatherDisplay:10.37,2013-01-22 09:28:00,
2013-01-22 03:33:00,-27.0,-32.5,30.22,WNW,301,0.0,0.0,74,0.00,-RA,,0.00,0.0,WeatherDisplay:10.37,2013-01-22 09:33:00,
2013-01-22 03:38:00,-27.0,-32.5,30.23,WNW,302,0.0,0.0,74,0.00,-RA,,0.00,0.0,WeatherDisplay:10.37,2013-01-22 09:38:00,
2013-01-22 03:43:00,-27.1,-32.6,30.23,WNW,302,0.0,0.0,74,0.00,-RA,,0.00,0.0,WeatherDisplay:10.37,2013-01-22 09:43:00,
2013-01-22 03:48:00,-27.1,-32.6,30.23,WNW,300,0.0,0.0,74,0.00,-RA,,0.00,0.0,WeatherDisplay:10.37,2013-01-22 09:48:00,
2013-01-22 03:53:00,-27.1,-32.6,30.23,WNW,301,0.0,0.0,74,0.00,-RA,,0.00,0.0,WeatherDisplay:10.37,2013-01-22 09:53:00,
2013-01-22 03:58:00,-27.1,-32.6,30.23,WNW,302,0.0,0.0,74,0.00,-RA,,0.00,0.0,WeatherDisplay:10.37,2013-01-22 09:58:00,
2013-01-22 04:03:00,-27.1,-32.6,30.22,WNW,302,0.0,0.0,74,0.00,-RA,,0.00,0.0,WeatherDisplay:10.37,2013-01-22 10:03:00,
2013-01-22 04:08:00,-27.1,-32.6,30.22,WNW,301,0.0,0.0,74,0.00,-RA,,0.00,0.0,WeatherDisplay:10.37,2013-01-22 10:08:00,
2013-01-22 04:13:00,-27.1,-32.6,30.22,WNW,302,0.0,0.0,74,0.00,-RA,,0.00,0.0,WeatherDisplay:10.37,2013-01-22 10:13:00,
2013-01-22 04:18:00,-27.1,-32.6,30.22,WNW,300,0.0,0.0,74,0.00,-RA,,0.00,0.0,WeatherDisplay:10.37,2013-01-22 10:18:00,
2013-01-22 04:23:00,-27.1,-32.6,30.22,WNW,301,0.0,0.0,74,0.00,-RA,,0.00,0.0,WeatherDisplay:10.37,2013-01-22 10:23:00,
2013-01-22 04:28:00,-27.1,-32.4,30.22,WNW,302,0.0,0.0,75,0.00,-RA,,0.00,0.0,WeatherDisplay:10.37,2013-01-22 10:28:00,
2013-01-22 04:34:00,-27.1,-32.4,30.22,WNW,302,0.0,0.0,75,0.00,-RA,,0.00,0.0,WeatherDisplay:10.37,2013-01-22 10:34:00,
2013-01-22 04:39:00,-27.1,-32.4,30.22,WNW,300,0.0,0.0,75,0.00,-RA,,0.00,0.0,WeatherDisplay:10.37,2013-01-22 10:39:00,
2013-01-22 04:44:00,-27.1,-32.4,30.22,WNW,301,0.0,0.0,75,0.00,-RA,,0.00,0.0,WeatherDisplay:10.37,2013-01-22 10:44:00,
2013-01-22 04:49:00,-27.1,-32.4,30.23,WNW,302,0.0,0.0,75,0.00,-RA,,0.00,0.0,WeatherDisplay:10.37,2013-01-22 10:49:00,
2013-01-22 04:54:00,-27.0,-32.3,30.23,WNW,302,0.0,0.0,75,0.00,-RA,,0.00,0.0,WeatherDisplay:10.37,2013-01-22 10:54:00,
2013-01-22 04:59:00,-27.0,-32.3,30.23,WNW,302,0.0,0.0,75,0.00,-RA,,0.00,0.0,WeatherDisplay:10.37,2013-01-22 10:59:00,
2013-01-22 05:04:00,-27.0,-32.3,30.23,WNW,301,0.0,0.0,75,0.00,-RA,,0.00,0.0,WeatherDisplay:10.37,2013-01-22 11:04:00,
2013-01-22 05:09:00,-27.0,-32.3,30.23,WNW,300,0.0,0.0,75,0.00,-RA,,0.00,0.0,WeatherDisplay:10.37,2013-01-22 11:09:00,
2013-01-22 05:14:00,-27.0,-32.3,30.23,WNW,300,0.0,0.0,75,0.00,-RA,,0.00,0.0,WeatherDisplay:10.37,2013-01-22 11:14:00,
2013-01-22 05:19:00,-27.1,-32.4,30.23,WNW,301,0.0,0.0,75,0.00,-RA,,0.00,0.0,WeatherDisplay:10.37,2013-01-22 11:19:00,
2013-01-22 05:24:00,-27.1,-32.4,30.23,WNW,301,0.0,0.0,75,0.00,-RA,,0.00,0.0,WeatherDisplay:10.37,2013-01-22 11:24:00,
2013-01-22 05:29:00,-27.1,-32.4,30.23,WNW,302,0.0,0.0,75,0.00,-RA,,0.00,0.0,WeatherDisplay:10.37,2013-01-22 11:29:00,
2013-01-22 05:34:00,-27.2,-32.5,30.23,WNW,300,0.0,0.0,75,0.00,-RA,,0.00,0.0,WeatherDisplay:10.37,2013-01-22 11:34:00,
2013-01-22 05:39:00,-27.3,-32.6,30.23,WNW,301,0.0,0.0,75,0.00,-RA,,0.00,0.0,WeatherDisplay:10.37,2013-01-22 11:39:00,
2013-01-22 05:44:00,-27.3,-32.8,30.23,WNW,302,0.0,0.0,74,0.00,-RA,,0.00,0.0,WeatherDisplay:10.37,2013-01-22 11:44:00,
2013-01-22 05:49:00,-27.4,-32.9,30.23,WNW,302,0.0,0.0,74,0.00,-RA,,0.00,0.0,WeatherDisplay:10.37,2013-01-22 11:49:00,
2013-01-22 05:54:00,-27.4,-32.9,30.22,WNW,302,0.0,0.0,74,0.00,-RA,,0.00,0.0,WeatherDisplay:10.37,2013-01-22 11:54:00,
2013-01-22 05:59:00,-27.4,-32.9,30.22,WNW,300,0.0,0.0,74,0.00,-RA,,0.00,0.0,WeatherDisplay:10.37,2013-01-22 11:59:00,
2013-01-22 06:04:00,-27.5,-33.0,30.22,WNW,302,0.0,0.0,74,0.00,-RA,,0.00,0.0,WeatherDisplay:10.37,2013-01-22 12:04:00,
2013-01-22 06:09:00,-27.5,-33.0,30.22,WNW,302,0.0,0.0,74,0.00,-RA,,0.00,0.0,WeatherDisplay:10.37,2013-01-22 12:09:00,
2013-01-22 06:14:00,-27.6,-33.1,30.21,WNW,301,0.0,0.0,74,0.00,-RA,,0.00,0.0,WeatherDisplay:10.37,2013-01-22 12:14:00,
2013-01-22 06:19:00,-27.6,-33.1,30.21,WNW,302,0.0,0.0,74,0.00,-RA,,0.00,0.0,WeatherDisplay:10.37,2013-01-22 12:19:00,
2013-01-22 06:24:00,-27.7,-33.2,30.21,WNW,301,0.0,0.0,74,0.00,-RA,,0.00,0.0,WeatherDisplay:10.37,2013-01-22 12:24:00,
2013-01-22 06:29:00,-27.7,-33.2,30.21,WNW,302,0.0,0.0,74,0.00,-RA,,0.00,0.0,WeatherDisplay:10.37,2013-01-22 12:29:00,
2013-01-22 06:34:00,-27.7,-33.2,30.21,WNW,302,0.0,0.0,74,0.00,-RA,,0.00,0.0,WeatherDisplay:10.37,2013-01-22 12:34:00,
2013-01-22 06:39:00,-27.8,-33.3,30.20,WNW,302,0.0,0.0,74,0.00,-RA,,0.00,0.0,WeatherDisplay:10.37,2013-01-22 12:39:00,
2013-01-22 06:44:00,-27.8,-33.3,30.21,WNW,301,0.0,0.0,74,0.00,-RA,,0.00,0.0,WeatherDisplay:10.37,2013-01-22 12:44:00,
2013-01-22 06:49:00,-27.8,-33.3,30.21,WNW,302,0.0,0.0,74,0.00,-RA,,0.00,0.0,WeatherDisplay:10.37,2013-01-22 12:49:00,
2013-01-22 06:54:00,-27.9,-33.4,30.21,WNW,302,0.0,0.0,74,0.00,-RA,,0.00,0.0,WeatherDisplay:10.37,2013-01-22 12:54:00,
2013-01-22 06:59:00,-27.9,-33.4,30.21,WNW,302,0.0,0.0,74,0.00,-RA,,0.00,0.0,WeatherDisplay:10.37,2013-01-22 12:59:00,
2013-01-22 07:05:00,-27.9,-33.4,30.21,WNW,301,0.0,0.0,74,0.00,-RA,,0.00,0.0,WeatherDisplay:10.37,2013-01-22 13:05:00,
2013-01-22 07:10:00,-27.9,-33.4,30.21,WNW,302,0.0,0.0,74,0.00,-RA,,0.00,0.0,WeatherDisplay:10.37,2013-01-22 13:10:00,
2013-01-22 07:15:00,-27.9,-33.4,30.21,WNW,302,0.0,0.0,74,0.00,-RA,,0.00,0.0,WeatherDisplay:10.37,2013-01-22 13:15:00,
2013-01-22 07:20:00,-27.9,-33.4,30.21,WNW,302,0.0,0.0,74,0.00,-RA,,0.00,0.0,WeatherDisplay:10.37,2013-01-22 13:20:00,
2013-01-22 07:25:00,-27.9,-33.4,30.20,WNW,302,0.0,0.0,74,0.00,-RA,,0.00,0.0,WeatherDisplay:10.37,2013-01-22 13:25:00,
2013-01-22 07:30:00,-28.0,-33.5,30.20,WNW,302,0.0,0.0,74,0.00,-RA,,0.00,0.0,WeatherDisplay:10.37,2013-01-22 13:30:00,
2013-01-22 07:35:00,-28.0,-33.5,30.21,WNW,301,0.0,0.0,74,0.00,-RA,,0.00,0.0,WeatherDisplay:10.37,2013-01-22 13:35:00,
2013-01-22 07:40:00,-28.0,-33.5,30.21,WNW,301,0.0,0.0,74,0.00,-RA,,0.00,0.0,WeatherDisplay:10.37,2013-01-22 13:40:00,
2013-01-22 07:45:00,-28.0,-33.5,30.21,WNW,300,0.0,0.0,74,0.00,-RA,,0.00,0.0,WeatherDisplay:10.37,2013-01-22 13:45:00,
2013-01-22 07:50:00,-28.0,-33.5,30.21,WNW,302,0.0,0.0,74,0.00,-RA,,0.00,0.0,WeatherDisplay:10.37,2013-01-22 13:50:00,
2013-01-22 07:55:00,-28.1,-33.6,30.22,WNW,302,0.0,0.0,74,0.00,-RA,,0.00,0.0,WeatherDisplay:10.37,2013-01-22 13:55:00,
2013-01-22 08:00:00,-28.1,-33.6,30.22,WNW,301,0.0,0.0,74,0.00,-RA,,0.00,0.0,WeatherDisplay:10.37,2013-01-22 14:00:00,
2013-01-22 08:05:00,-28.1,-33.6,30.22,WNW,301,0.0,0.0,74,0.00,-RA,,0.00,5.0,WeatherDisplay:10.37,2013-01-22 14:05:00,
2013-01-22 08:10:00,-28.1,-33.6,30.22,WNW,302,0.0,0.0,74,0.00,-RA,,0.00,7.0,WeatherDisplay:10.37,2013-01-22 14:10:00,
2013-01-22 08:15:00,-28.1,-33.6,30.22,WNW,301,0.0,0.0,74,0.00,-RA,,0.00,7.0,WeatherDisplay:10.37,2013-01-22 14:15:00,
2013-01-22 08:20:00,-28.1,-33.6,30.22,WNW,302,0.0,0.0,74,0.00,-RA,,0.00,9.0,WeatherDisplay:10.37,2013-01-22 14:20:00,
2013-01-22 08:25:00,-28.0,-33.2,30.22,WNW,302,0.0,0.0,75,0.00,-RA,,0.00,11.0,WeatherDisplay:10.37,2013-01-22 14:25:00,
2013-01-22 08:30:00,-28.0,-33.2,30.22,WNW,301,0.0,0.0,75,0.00,-RA,,0.00,12.0,WeatherDisplay:10.37,2013-01-22 14:30:00,
2013-01-22 08:35:00,-27.9,-33.1,30.22,WNW,301,0.0,0.0,75,0.00,-RA,,0.00,16.0,WeatherDisplay:10.37,2013-01-22 14:35:00,
2013-01-22 08:40:00,-27.8,-33.1,30.22,WNW,301,0.0,0.0,75,0.00,-RA,,0.00,16.0,WeatherDisplay:10.37,2013-01-22 14:40:00,
2013-01-22 08:45:00,-27.6,-32.9,30.22,WNW,300,0.0,0.0,75,0.00,-RA,,0.00,19.0,WeatherDisplay:10.37,2013-01-22 14:45:00,
2013-01-22 08:50:00,-27.4,-32.7,30.22,WNW,300,0.0,0.0,75,0.00,-RA,,0.00,28.0,WeatherDisplay:10.37,2013-01-22 14:50:00,
2013-01-22 08:55:00,-27.3,-32.3,30.23,WNW,302,0.0,0.0,76,0.00,-RA,,0.00,37.0,WeatherDisplay:10.37,2013-01-22 14:55:00,
2013-01-22 09:00:00,-26.9,-31.9,30.23,WNW,302,0.0,0.0,76,0.00,-RA,,0.00,42.0,WeatherDisplay:10.37,2013-01-22 15:00:00,
2013-01-22 09:05:00,-26.4,-31.2,30.23,WNW,300,0.0,0.0,77,0.00,-RA,,0.00,51.0,WeatherDisplay:10.37,2013-01-22 15:05:00,
2013-01-22 09:10:00,-25.8,-30.6,30.22,WNW,302,0.0,0.0,77,0.00,-RA,,0.00,46.0,WeatherDisplay:10.37,2013-01-22 15:10:00,
2013-01-22 09:15:00,-25.1,-29.7,30.22,WNW,300,0.0,0.0,78,0.00,-RA,,0.00,53.0,WeatherDisplay:10.37,2013-01-22 15:15:00,
2013-01-22 09:20:00,-24.3,-25.9,30.22,WNW,301,0.0,0.0,92,0.00,-RA,,0.00,65.0,WeatherDisplay:10.37,2013-01-22 15:20:00,
2013-01-22 09:25:00,-23.5,-28.1,30.22,WNW,302,0.0,0.0,78,0.00,-RA,,0.00,114.0,WeatherDisplay:10.37,2013-01-22 15:25:00,
2013-01-22 09:30:00,-22.5,-26.9,30.22,WNW,301,0.0,0.0,79,0.00,-RA,,0.00,97.0,WeatherDisplay:10.37,2013-01-22 15:30:00,
2013-01-22 09:35:00,-21.8,-26.3,30.23,WNW,301,0.0,0.0,79,0.00,-RA,,0.00,95.0,WeatherDisplay:10.37,2013-01-22 15:35:00,
2013-01-22 09:40:00,-21.1,-25.6,30.23,WNW,301,0.0,0.0,79,0.00,-RA,,0.00,111.0,WeatherDisplay:10.37,2013-01-22 15:40:00,
2013-01-22 09:45:00,-20.3,-24.8,30.23,WNW,300,0.0,0.0,79,0.00,-RA,,0.00,169.0,WeatherDisplay:10.37,2013-01-22 15:45:00,
2013-01-22 09:50:00,-19.6,-23.9,30.23,WNW,300,0.0,0.0,80,0.00,-RA,,0.00,223.0,WeatherDisplay:10.37,2013-01-22 15:50:00,
2013-01-22 09:55:00,-18.6,-22.9,30.23,WNW,301,0.0,0.0,80,0.00,-RA,,0.00,241.0,WeatherDisplay:10.37,2013-01-22 15:55:00,
2013-01-22 10:00:00,-17.6,-21.9,30.23,WNW,301,0.0,0.0,80,0.00,-RA,,0.00,246.0,WeatherDisplay:10.37,2013-01-22 16:00:00,
2013-01-22 10:05:00,-16.5,-20.6,30.23,WNW,301,0.0,0.0,81,0.00,-RA,,0.00,290.0,WeatherDisplay:10.37,2013-01-22 16:05:00,
2013-01-22 10:10:00,-15.3,-19.4,30.23,WNW,300,0.0,0.0,81,0.00,-RA,,0.00,299.0,WeatherDisplay:10.37,2013-01-22 16:10:00,
2013-01-22 10:15:00,-13.6,-18.0,30.23,WNW,301,1.1,1.1,80,0.00,-RA,,0.00,294.0,WeatherDisplay:10.37,2013-01-22 16:15:00,
2013-01-22 10:20:00,-12.8,-17.5,30.22,WNW,301,0.0,0.0,79,0.00,-RA,,0.00,306.0,WeatherDisplay:10.37,2013-01-22 16:20:00,
2013-01-22 10:25:00,-12.4,-17.1,30.22,WNW,300,0.0,0.0,79,0.00,-RA,,0.00,306.0,WeatherDisplay:10.37,2013-01-22 16:25:00,
2013-01-22 10:30:00,-11.7,-16.6,30.22,WNW,301,0.0,0.0,78,0.00,-RA,,0.00,315.0,WeatherDisplay:10.37,2013-01-22 16:30:00,
2013-01-22 10:35:00,-11.1,-16.1,30.22,WNW,291,3.5,3.5,78,0.00,-RA,,0.00,299.0,WeatherDisplay:10.37,2013-01-22 16:35:00,
2013-01-22 10:40:00,-10.4,-15.4,30.23,WNW,289,0.0,0.0,78,0.00,-RA,,0.00,264.0,WeatherDisplay:10.37,2013-01-22 16:40:00,
2013-01-22 10:45:00,-9.9,-15.1,30.23,WNW,287,3.5,3.5,77,0.00,-RA,,0.00,290.0,WeatherDisplay:10.37,2013-01-22 16:45:00,
2013-01-22 10:50:00,-9.3,-14.8,30.24,WNW,286,3.5,3.5,76,0.00,-RA,,0.00,288.0,WeatherDisplay:10.37,2013-01-22 16:50:00,
2013-01-22 10:55:00,-9.0,-14.8,30.23,WNW,282,3.5,3.5,75,0.00,-RA,,0.00,385.0,WeatherDisplay:10.37,2013-01-22 16:55:00,
2013-01-22 11:00:00,-8.5,-14.6,30.23,West,272,2.3,2.3,74,0.00,-RA,,0.00,316.0,WeatherDisplay:10.37,2013-01-22 17:00:00,
2013-01-22 11:05:00,-8.0,-14.1,30.23,West,272,2.3,2.3,74,0.00,-RA,,0.00,132.0,WeatherDisplay:10.37,2013-01-22 17:05:00,
2013-01-22 11:10:00,-7.9,-14.3,30.23,West,267,4.6,4.6,73,0.00,-RA,,0.00,199.0,WeatherDisplay:10.37,2013-01-22 17:10:00,
2013-01-22 11:15:00,-7.8,-14.4,30.23,West,263,3.5,3.5,72,0.00,-RA,,0.00,258.0,WeatherDisplay:10.37,2013-01-22 17:15:00,
2013-01-22 11:20:00,-8.0,-14.9,30.23,WSW,240,4.6,4.6,71,0.00,-RA,,0.00,206.0,WeatherDisplay:10.37,2013-01-22 17:20:00,
2013-01-22 11:25:00,-8.1,-15.0,30.23,SW,236,4.0,4.0,71,0.00,-RA,,0.00,260.0,WeatherDisplay:10.37,2013-01-22 17:25:00,
2013-01-22 11:30:00,-8.0,-14.6,30.22,WSW,238,3.5,3.5,72,0.00,-RA,,0.00,258.0,WeatherDisplay:10.37,2013-01-22 17:30:00,
2013-01-22 11:35:00,-7.8,-14.7,30.22,West,264,4.0,4.0,71,0.00,-RA,,0.00,267.0,WeatherDisplay:10.37,2013-01-22 17:35:00,
2013-01-22 11:40:00,-7.5,-14.4,30.22,West,263,4.0,4.0,71,0.00,-RA,,0.00,350.0,WeatherDisplay:10.37,2013-01-22 17:40:00,
2013-01-22 11:45:00,-7.0,-14.2,30.21,West,263,3.5,3.5,70,0.00,-RA,,0.00,332.0,WeatherDisplay:10.37,2013-01-22 17:45:00,
2013-01-22 11:50:00,-6.7,-13.9,30.22,West,261,1.1,0.0,70,0.00,-RA,,0.00,374.0,WeatherDisplay:10.37,2013-01-22 17:50:00,
2013-01-22 11:55:00,-6.6,-13.8,30.22,West,260,0.0,0.0,70,0.00,-RA,,0.00,316.0,WeatherDisplay:10.37,2013-01-22 17:55:00,
2013-01-22 12:00:00,-5.9,-13.4,30.22,West,259,0.0,0.0,69,0.00,-RA,,0.00,396.0,WeatherDisplay:10.37,2013-01-22 18:00:00,
2013-01-22 12:05:00,-5.4,-13.0,30.22,West,259,3.0,3.0,69,0.00,-RA,,0.00,297.0,WeatherDisplay:10.37,2013-01-22 18:05:00,
2013-01-22 12:10:00,-5.4,-13.0,30.22,West,259,3.5,3.5,69,0.00,-RA,,0.00,264.0,WeatherDisplay:10.37,2013-01-22 18:10:00,
2013-01-22 12:15:00,-5.5,-13.1,30.21,West,259,3.5,3.5,69,0.00,-RA,,0.00,311.0,WeatherDisplay:10.37,2013-01-22 18:15:00,
2013-01-22 12:20:00,-5.5,-13.3,30.20,West,259,1.1,1.1,68,0.00,-RA,,0.00,223.0,WeatherDisplay:10.37,2013-01-22 18:20:00,
2013-01-22 12:25:00,-5.2,-12.8,30.20,West,259,0.0,0.0,69,0.00,-RA,,0.00,283.0,WeatherDisplay:10.37,2013-01-22 18:25:00,
2013-01-22 12:30:00,-4.8,-12.7,30.20,West,259,0.0,0.0,68,0.00,-RA,,0.00,239.0,WeatherDisplay:10.37,2013-01-22 18:30:00,
2013-01-22 12:36:00,-4.4,-12.3,30.20,West,259,3.5,0.0,68,0.00,-RA,,0.00,169.0,WeatherDisplay:10.37,2013-01-22 18:36:00,
2013-01-22 12:41:00,-4.2,-11.8,30.20,West,259,2.3,2.3,69,0.00,-RA,,0.00,195.0,WeatherDisplay:10.37,2013-01-22 18:41:00,
2013-01-22 12:46:00,-4.1,-12.0,30.20,WSW,254,3.5,3.5,68,0.00,-RA,,0.00,146.0,WeatherDisplay:10.37,2013-01-22 18:46:00,
2013-01-22 12:51:00,-4.0,-11.9,30.19,WSW,253,0.0,0.0,68,0.00,-RA,,0.00,163.0,WeatherDisplay:10.37,2013-01-22 18:51:00,
2013-01-22 12:56:00,-3.9,-11.5,30.19,WSW,253,2.3,2.3,69,0.00,-RA,,0.00,162.0,WeatherDisplay:10.37,2013-01-22 18:56:00,
2013-01-22 13:01:00,-3.8,-12.0,30.19,WSW,247,4.6,4.6,67,0.00,-RA,,0.00,209.0,WeatherDisplay:10.37,2013-01-22 19:01:00,
2013-01-22 13:07:00,-3.7,-11.9,30.19,WSW,246,3.5,3.5,67,0.00,-RA,,0.00,209.0,WeatherDisplay:10.37,2013-01-22 19:07:00,
2013-01-22 13:12:00,-3.5,-11.7,30.19,WSW,245,4.6,4.6,67,0.00,-RA,,0.00,246.0,WeatherDisplay:10.37,2013-01-22 19:12:00,
2013-01-22 13:17:00,-3.5,-12.0,30.18,WSW,244,3.5,3.5,66,0.00,-RA,,0.00,350.0,WeatherDisplay:10.37,2013-01-22 19:17:00,
2013-01-22 13:22:00,-3.3,-11.8,30.18,WSW,244,3.5,3.5,66,0.00,-RA,,0.00,408.0,WeatherDisplay:10.37,2013-01-22 19:22:00,
2013-01-22 13:27:00,-2.7,-11.0,30.18,WSW,244,3.5,3.5,67,0.00,-RA,,0.00,411.0,WeatherDisplay:10.37,2013-01-22 19:27:00,
2013-01-22 13:32:00,-2.7,-11.3,30.18,WSW,246,3.5,3.5,66,0.00,-RA,,0.00,225.0,WeatherDisplay:10.37,2013-01-22 19:32:00,
2013-01-22 13:37:00,-2.8,-11.4,30.19,WSW,246,3.5,3.5,66,0.00,-RA,,0.00,385.0,WeatherDisplay:10.37,2013-01-22 19:37:00,
2013-01-22 13:42:00,-2.3,-10.9,30.18,WSW,243,3.5,3.5,66,0.00,-RA,,0.00,399.0,WeatherDisplay:10.37,2013-01-22 19:42:00,
2013-01-22 13:47:00,-1.9,-10.8,30.17,SW,236,3.5,3.5,65,0.00,-RA,,0.00,397.0,WeatherDisplay:10.37,2013-01-22 19:47:00,
2013-01-22 13:52:00,-1.8,-10.7,30.17,WSW,256,5.8,5.8,65,0.00,-RA,,0.00,396.0,WeatherDisplay:10.37,2013-01-22 19:52:00,
2013-01-22 13:57:00,-1.8,-10.7,30.17,SW,234,4.6,4.6,65,0.00,-RA,,0.00,387.0,WeatherDisplay:10.37,2013-01-22 19:57:00,
2013-01-22 14:02:00,-1.8,-10.4,30.17,WSW,253,4.0,4.0,66,0.00,-RA,,0.00,394.0,WeatherDisplay:10.37,2013-01-22 20:02:00,
2013-01-22 14:07:00,-1.7,-10.6,30.17,WSW,252,3.5,3.5,65,0.00,-RA,,0.00,311.0,WeatherDisplay:10.37,2013-01-22 20:07:00,
2013-01-22 14:12:00,-1.6,-10.5,30.17,WSW,252,3.5,3.5,65,0.00,-RA,,0.00,322.0,WeatherDisplay:10.37,2013-01-22 20:12:00,
2013-01-22 14:17:00,-1.5,-10.7,30.17,WSW,237,5.8,5.8,64,0.00,-RA,,0.00,390.0,WeatherDisplay:10.37,2013-01-22 20:17:00,
2013-01-22 14:22:00,-1.3,-10.5,30.17,WSW,241,6.9,6.9,64,0.00,-RA,,0.00,399.0,WeatherDisplay:10.37,2013-01-22 20:22:00,
2013-01-22 14:27:00,-1.0,-9.9,30.17,WSW,248,6.9,6.9,65,0.00,-RA,,0.00,392.0,WeatherDisplay:10.37,2013-01-22 20:27:00,
2013-01-22 14:32:00,-0.8,-10.4,30.17,WSW,245,6.9,6.9,63,0.00,-RA,,0.00,346.0,WeatherDisplay:10.37,2013-01-22 20:32:00,
2013-01-22 14:37:00,-0.5,-9.8,30.17,SW,230,4.0,4.0,64,0.00,-RA,,0.00,313.0,WeatherDisplay:10.37,2013-01-22 20:37:00,
2013-01-22 14:42:00,-0.4,-10.0,30.17,SW,232,4.6,4.6,63,0.00,-RA,,0.00,253.0,WeatherDisplay:10.37,2013-01-22 20:42:00,
2013-01-22 14:47:00,-0.4,-10.0,30.17,WSW,250,5.8,5.8,63,0.00,-RA,,0.00,230.0,WeatherDisplay:10.37,2013-01-22 20:47:00,
2013-01-22 14:53:00,-0.1,-9.7,30.17,WSW,252,3.5,3.5,63,0.00,-RA,,0.00,188.0,WeatherDisplay:10.37,2013-01-22 20:53:00,
2013-01-22 14:58:00,-0.2,-9.5,30.17,WSW,249,3.5,3.5,64,0.00,-RA,,0.00,156.0,WeatherDisplay:10.37,2013-01-22 20:58:00,
2013-01-22 15:03:00,-0.1,-9.4,30.17,SW,234,3.5,3.5,64,0.00,-RA,,0.00,142.0,WeatherDisplay:10.37,2013-01-22 21:03:00,
2013-01-22 15:08:00,-0.2,-9.8,30.18,WSW,241,3.5,3.5,63,0.00,-RA,,0.00,130.0,WeatherDisplay:10.37,2013-01-22 21:08:00,
2013-01-22 15:13:00,-0.3,-9.9,30.17,SW,233,4.6,4.6,63,0.00,-RA,,0.00,123.0,WeatherDisplay:10.37,2013-01-22 21:13:00,
2013-01-22 15:18:00,-0.5,-10.1,30.17,SW,234,5.8,5.8,63,0.00,-RA,,0.00,116.0,WeatherDisplay:10.37,2013-01-22 21:18:00,
2013-01-22 15:23:00,-0.8,-10.4,30.17,WSW,241,5.8,5.8,63,0.00,-RA,,0.00,104.0,WeatherDisplay:10.37,2013-01-22 21:23:00,
2013-01-22 15:28:00,-1.0,-10.3,30.17,WSW,239,0.0,0.4,64,0.00,-RA,,0.00,91.0,WeatherDisplay:10.37,2013-01-22 21:28:00,
2013-01-22 15:32:00,-1.2,-10.4,30.17,WSW,237,3.5,3.5,64,0.00,-RA,,0.00,83.0,WeatherDisplay:10.37,2013-01-22 21:32:00,
2013-01-22 15:37:00,-1.3,-10.5,30.16,SW,234,3.0,3.0,64,0.00,-RA,,0.00,72.0,WeatherDisplay:10.37,2013-01-22 21:37:00,
2013-01-22 15:42:00,-1.6,-10.8,30.16,SW,225,4.6,4.6,64,0.00,-RA,,0.00,67.0,WeatherDisplay:10.37,2013-01-22 21:42:00,
2013-01-22 15:47:00,-1.9,-10.8,30.16,WSW,240,2.3,0.0,65,0.00,-RA,,0.00,62.0,WeatherDisplay:10.37,2013-01-22 21:47:00,
2013-01-22 15:52:00,-2.1,-11.0,30.16,WSW,240,3.5,3.5,65,0.00,-RA,,0.00,62.0,WeatherDisplay:10.37,2013-01-22 21:52:00,
2013-01-22 15:57:00,-2.3,-10.9,30.16,WSW,248,5.8,5.8,66,0.00,-RA,,0.00,58.0,WeatherDisplay:10.37,2013-01-22 21:57:00,
2013-01-22 16:02:00,-2.5,-11.1,30.16,WSW,250,4.6,4.6,66,0.00,-RA,,0.00,53.0,WeatherDisplay:10.37,2013-01-22 22:02:00,
2013-01-22 16:07:00,-2.6,-10.9,30.15,WSW,249,3.5,3.5,67,0.00,-RA,,0.00,44.0,WeatherDisplay:10.37,2013-01-22 22:07:00,
2013-01-22 16:12:00,-2.8,-11.1,30.15,WSW,250,2.3,2.3,67,0.00,-RA,,0.00,39.0,WeatherDisplay:10.37,2013-01-22 22:12:00,
2013-01-22 16:17:00,-2.9,-11.2,30.15,WSW,250,1.1,1.1,67,0.00,-RA,,0.00,33.0,WeatherDisplay:10.37,2013-01-22 22:17:00,
2013-01-22 16:23:00,-3.0,-10.9,30.15,WSW,249,3.5,3.5,68,0.00,-RA,,0.00,26.0,WeatherDisplay:10.37,2013-01-22 22:23:00,
2013-01-22 16:28:00,-3.1,-11.0,30.15,WSW,249,3.5,3.5,68,0.00,-RA,,0.00,25.0,WeatherDisplay:10.37,2013-01-22 22:28:00,
2013-01-22 16:33:00,-3.1,-11.0,30.16,WSW,249,2.3,2.3,68,0.00,-RA,,0.00,19.0,WeatherDisplay:10.37,2013-01-22 22:33:00,
2013-01-22 16:38:00,-3.2,-10.8,30.15,WSW,249,3.5,3.5,69,0.00,-RA,,0.00,12.0,WeatherDisplay:10.37,2013-01-22 22:38:00,
2013-01-22 16:43:00,-3.3,-10.9,30.15,WSW,249,0.0,0.0,69,0.00,-RA,,0.00,11.0,WeatherDisplay:10.37,2013-01-22 22:43:00,
2013-01-22 16:48:00,-3.4,-11.0,30.15,WSW,247,3.5,3.5,69,0.00,-RA,,0.00,5.0,WeatherDisplay:10.37,2013-01-22 22:48:00,
2013-01-22 16:53:00,-3.5,-11.1,30.15,WSW,246,3.0,3.0,69,0.00,-RA,,0.00,0.0,WeatherDisplay:10.37,2013-01-22 22:53:00,
2013-01-22 16:58:00,-3.6,-11.2,30.15,WSW,243,3.5,3.5,69,0.00,-RA,,0.00,0.0,WeatherDisplay:10.37,2013-01-22 22:58:00,
2013-01-22 17:03:00,-3.7,-11.3,30.15,WSW,243,3.5,3.5,69,0.00,-RA,,0.00,0.0,WeatherDisplay:10.37,2013-01-22 23:03:00,
2013-01-22 17:08:00,-3.9,-11.2,30.15,WSW,242,0.0,0.0,70,0.00,-RA,,0.00,0.0,WeatherDisplay:10.37,2013-01-22 23:08:00,
2013-01-22 17:13:00,-4.0,-11.3,30.14,WSW,243,2.3,2.3,70,0.00,-RA,,0.00,0.0,WeatherDisplay:10.37,2013-01-22 23:13:00,
2013-01-22 17:18:00,-4.1,-11.4,30.14,WSW,243,2.0,2.0,70,0.00,-RA,,0.00,0.0,WeatherDisplay:10.37,2013-01-22 23:18:00,
2013-01-22 17:23:00,-4.2,-11.5,30.14,WSW,243,3.5,3.5,70,0.00,-RA,,0.00,0.0,WeatherDisplay:10.37,2013-01-22 23:23:00,
2013-01-22 17:28:00,-4.3,-11.3,30.14,WSW,242,3.5,3.5,71,0.00,-RA,,0.00,0.0,WeatherDisplay:10.37,2013-01-22 23:28:00,
2013-01-22 17:33:00,-4.5,-11.5,30.13,WSW,243,2.3,2.3,71,0.00,-RA,,0.00,0.0,WeatherDisplay:10.37,2013-01-22 23:33:00,
2013-01-22 17:38:00,-4.6,-11.6,30.13,WSW,242,0.0,0.0,71,0.00,-RA,,0.00,0.0,WeatherDisplay:10.37,2013-01-22 23:38:00,
2013-01-22 17:43:00,-4.6,-11.6,30.13,WSW,243,0.0,0.0,71,0.00,-RA,,0.00,0.0,WeatherDisplay:10.37,2013-01-22 23:43:00,
2013-01-22 17:48:00,-4.7,-11.4,30.14,WSW,242,0.0,0.0,72,0.00,-RA,,0.00,0.0,WeatherDisplay:10.37,2013-01-22 23:48:00,
2013-01-22 17:53:00,-4.8,-11.5,30.14,WSW,243,0.0,0.0,72,0.00,-RA,,0.00,0.0,WeatherDisplay:10.37,2013-01-22 23:53:00,
2013-01-22 17:58:00,-4.9,-11.6,30.14,WSW,242,0.0,0.0,72,0.00,-RA,,0.00,0.0,WeatherDisplay:10.37,2013-01-22 23:58:00,
2013-01-22 18:03:00,-5.0,-11.7,30.14,WSW,243,0.0,0.0,72,0.00,-RA,,0.00,0.0,WeatherDisplay:10.37,2013-01-23 00:03:00,
2013-01-22 18:08:00,-5.2,-11.9,30.14,WSW,242,0.0,0.0,72,0.00,-RA,,0.00,0.0,WeatherDisplay:10.37,2013-01-23 00:08:00,
2013-01-22 18:13:00,-5.3,-12.0,30.14,WSW,243,0.0,0.0,72,0.00,-RA,,0.00,0.0,WeatherDisplay:10.37,2013-01-23 00:13:00,
2013-01-22 18:18:00,-5.4,-12.1,30.13,WSW,243,0.0,0.0,72,0.00,-RA,,0.00,0.0,WeatherDisplay:10.37,2013-01-23 00:18:00,
2013-01-22 18:23:00,-5.5,-12.2,30.13,WSW,243,0.0,0.0,72,0.00,-RA,,0.00,0.0,WeatherDisplay:10.37,2013-01-23 00:23:00,
2013-01-22 18:28:00,-5.7,-12.4,30.12,WSW,242,0.0,0.0,72,0.00,-RA,,0.00,0.0,WeatherDisplay:10.37,2013-01-23 00:28:00,
2013-01-22 18:33:00,-6.0,-13.0,30.12,WSW,243,0.0,0.0,71,0.00,-RA,,0.00,0.0,WeatherDisplay:10.37,2013-01-23 00:33:00,
2013-01-22 18:38:00,-6.2,-13.2,30.12,WSW,243,0.0,0.0,71,0.00,-RA,,0.00,0.0,WeatherDisplay:10.37,2013-01-23 00:38:00,
2013-01-22 18:43:00,-6.5,-13.2,30.12,WSW,242,0.0,0.0,72,0.00,-RA,,0.00,0.0,WeatherDisplay:10.37,2013-01-23 00:43:00,
2013-01-22 18:48:00,-6.6,-13.3,30.12,WSW,243,0.0,0.0,72,0.00,-RA,,0.00,0.0,WeatherDisplay:10.37,2013-01-23 00:48:00,
2013-01-22 18:53:00,-6.9,-13.6,30.12,WSW,243,0.0,0.0,72,0.00,-RA,,0.00,0.0,WeatherDisplay:10.37,2013-01-23 00:53:00,
2013-01-22 18:58:00,-7.1,-13.8,30.12,WSW,243,0.0,0.0,72,0.00,-RA,,0.00,0.0,WeatherDisplay:10.37,2013-01-23 00:58:00,
2013-01-22 19:03:00,-7.3,-13.9,30.12,WSW,242,0.0,0.0,72,0.00,-RA,,0.00,0.0,WeatherDisplay:10.37,2013-01-23 01:03:00,
2013-01-22 19:08:00,-7.4,-14.0,30.11,WSW,243,0.0,0.0,72,0.00,-RA,,0.00,0.0,WeatherDisplay:10.37,2013-01-23 01:08:00,
2013-01-22 19:13:00,-7.6,-14.0,30.11,WSW,243,0.0,0.0,73,0.00,-RA,,0.00,0.0,WeatherDisplay:10.37,2013-01-23 01:13:00,
2013-01-22 19:18:00,-7.7,-14.1,30.11,WSW,243,0.0,0.0,73,0.00,-RA,,0.00,0.0,WeatherDisplay:10.37,2013-01-23 01:18:00,
2013-01-22 19:23:00,-7.7,-14.1,30.11,WSW,242,0.0,0.0,73,0.00,-RA,,0.00,0.0,WeatherDisplay:10.37,2013-01-23 01:23:00,
2013-01-22 19:28:00,-7.8,-14.2,30.11,WSW,243,0.0,0.0,73,0.00,-RA,,0.00,0.0,WeatherDisplay:10.37,2013-01-23 01:28:00,
2013-01-22 19:33:00,-7.9,-14.0,30.11,WSW,243,0.0,0.0,74,0.00,-RA,,0.00,0.0,WeatherDisplay:10.37,2013-01-23 01:33:00,
2013-01-22 19:38:00,-8.0,-14.1,30.11,WSW,243,0.0,0.0,74,0.00,-RA,,0.00,0.0,WeatherDisplay:10.37,2013-01-23 01:38:00,
2013-01-22 19:43:00,-8.1,-14.2,30.11,WSW,243,0.0,0.0,74,0.00,-RA,,0.00,0.0,WeatherDisplay:10.37,2013-01-23 01:43:00,
2013-01-22 19:48:00,-8.2,-14.3,30.10,WSW,243,0.0,0.0,74,0.00,-RA,,0.00,0.0,WeatherDisplay:10.37,2013-01-23 01:48:00,
2013-01-22 19:53:00,-8.2,-14.3,30.10,WSW,243,0.0,0.0,74,0.00,-RA,,0.00,0.0,WeatherDisplay:10.37,2013-01-23 01:53:00,
2013-01-22 19:58:00,-8.4,-14.5,30.10,WSW,243,0.0,0.0,74,0.00,-RA,,0.00,0.0,WeatherDisplay:10.37,2013-01-23 01:58:00,
2013-01-22 20:03:00,-8.5,-14.6,30.10,WSW,242,0.0,0.0,74,0.00,-RA,,0.00,0.0,WeatherDisplay:10.37,2013-01-23 02:03:00,
2013-01-22 20:08:00,-8.7,-14.8,30.10,WSW,242,0.0,0.0,74,0.00,-RA,,0.00,0.0,WeatherDisplay:10.37,2013-01-23 02:08:00,
2013-01-22 20:13:00,-8.9,-15.0,30.10,WSW,243,0.0,0.0,74,0.00,-RA,,0.00,0.0,WeatherDisplay:10.37,2013-01-23 02:13:00,
2013-01-22 20:18:00,-9.0,-15.0,30.10,WSW,243,0.0,0.0,74,0.00,-RA,,0.00,0.0,WeatherDisplay:10.37,2013-01-23 02:18:00,
2013-01-22 20:23:00,-9.3,-15.3,30.10,WSW,243,0.0,0.0,74,0.00,-RA,,0.00,0.0,WeatherDisplay:10.37,2013-01-23 02:23:00,
2013-01-22 20:28:00,-9.5,-15.5,30.10,WSW,242,0.0,0.0,74,0.00,-RA,,0.00,0.0,WeatherDisplay:10.37,2013-01-23 02:28:00,
2013-01-22 20:33:00,-9.7,-15.7,30.10,WSW,243,0.0,0.0,74,0.00,-RA,,0.00,0.0,WeatherDisplay:10.37,2013-01-23 02:33:00,
2013-01-22 20:38:00,-9.8,-15.8,30.10,WSW,243,0.0,0.0,74,0.00,-RA,,0.00,0.0,WeatherDisplay:10.37,2013-01-23 02:38:00,
2013-01-22 20:43:00,-10.0,-16.0,30.10,WSW,243,0.0,0.0,74,0.00,-RA,,0.00,0.0,WeatherDisplay:10.37,2013-01-23 02:43:00,
2013-01-22 20:48:00,-10.2,-15.9,30.09,WSW,243,0.0,0.0,75,0.00,-RA,,0.00,0.0,WeatherDisplay:10.37,2013-01-23 02:48:00,
2013-01-22 20:53:00,-10.3,-16.0,30.09,WSW,243,0.0,0.0,75,0.00,-RA,,0.00,0.0,WeatherDisplay:10.37,2013-01-23 02:53:00,
2013-01-22 20:58:00,-10.3,-15.8,30.10,WSW,242,0.0,0.0,76,0.00,-RA,,0.00,0.0,WeatherDisplay:10.37,2013-01-23 02:58:00,
2013-01-22 21:03:00,-10.3,-15.8,30.10,WSW,243,0.0,0.0,76,0.00,-RA,,0.00,0.0,WeatherDisplay:10.37,2013-01-23 03:03:00,
2013-01-22 21:08:00,-10.3,-15.8,30.09,WSW,243,0.0,0.0,76,0.00,-RA,,0.00,0.0,WeatherDisplay:10.37,2013-01-23 03:08:00,
2013-01-22 21:13:00,-10.2,-15.4,30.09,WSW,242,0.0,0.0,77,0.00,-RA,,0.00,0.0,WeatherDisplay:10.37,2013-01-23 03:13:00,
2013-01-22 21:18:00,-10.2,-15.4,30.09,WSW,243,0.0,0.0,77,0.00,-RA,,0.00,0.0,WeatherDisplay:10.37,2013-01-23 03:18:00,
2013-01-22 21:23:00,-10.1,-15.3,30.09,WSW,243,0.0,0.0,77,0.00,-RA,,0.00,0.0,WeatherDisplay:10.37,2013-01-23 03:23:00,
2013-01-22 21:28:00,-10.0,-15.0,30.09,WSW,243,0.0,0.0,78,0.00,-RA,,0.00,0.0,WeatherDisplay:10.37,2013-01-23 03:28:00,
2013-01-22 21:33:00,-9.9,-14.9,30.09,WSW,243,0.0,0.0,78,0.00,-RA,,0.00,0.0,WeatherDisplay:10.37,2013-01-23 03:33:00,
2013-01-22 21:38:00,-9.8,-14.8,30.09,WSW,242,0.0,0.0,78,0.00,-RA,,0.00,0.0,WeatherDisplay:10.37,2013-01-23 03:38:00,
2013-01-22 21:43:00,-9.8,-14.8,30.09,WSW,243,0.0,0.0,78,0.00,-RA,,0.00,0.0,WeatherDisplay:10.37,2013-01-23 03:43:00,
2013-01-22 21:48:00,-9.7,-14.7,30.09,WSW,243,0.0,0.0,78,0.00,-RA,,0.00,0.0,WeatherDisplay:10.37,2013-01-23 03:48:00,
2013-01-22 21:53:00,-9.6,-14.6,30.09,WSW,242,0.0,0.0,78,0.00,-RA,,0.00,0.0,WeatherDisplay:10.37,2013-01-23 03:53:00,
2013-01-22 21:58:00,-9.6,-14.6,30.09,WSW,242,0.0,0.0,78,0.00,-RA,,0.00,0.0,WeatherDisplay:10.37,2013-01-23 03:58:00,
2013-01-22 22:03:00,-9.5,-14.2,30.09,WSW,243,0.0,0.0,79,0.00,-RA,,0.00,0.0,WeatherDisplay:10.37,2013-01-23 04:03:00,
2013-01-22 22:08:00,-9.5,-14.2,30.09,WSW,243,0.0,0.0,79,0.00,-RA,,0.00,0.0,WeatherDisplay:10.37,2013-01-23 04:08:00,
2013-01-22 22:13:00,-9.4,-14.1,30.09,WSW,242,0.0,0.0,79,0.00,-RA,,0.00,0.0,WeatherDisplay:10.37,2013-01-23 04:13:00,
2013-01-22 22:18:00,-9.3,-14.0,30.09,WSW,243,0.0,0.0,79,0.00,-RA,,0.00,0.0,WeatherDisplay:10.37,2013-01-23 04:18:00,
2013-01-22 22:24:00,-9.1,-13.8,30.08,WSW,243,0.0,0.0,79,0.00,-RA,,0.00,0.0,WeatherDisplay:10.37,2013-01-23 04:24:00,
2013-01-22 22:29:00,-8.9,-13.4,30.08,WSW,242,3.5,3.5,80,0.00,-RA,,0.00,0.0,WeatherDisplay:10.37,2013-01-23 04:29:00,
2013-01-22 22:34:00,-8.7,-13.2,30.09,WSW,242,2.3,2.3,80,0.00,-RA,,0.00,0.0,WeatherDisplay:10.37,2013-01-23 04:34:00,
2013-01-22 22:39:00,-8.5,-12.8,30.08,WSW,243,2.3,2.3,81,0.00,-RA,,0.00,0.0,WeatherDisplay:10.37,2013-01-23 04:39:00,
2013-01-22 22:44:00,-8.3,-12.6,30.08,WSW,242,0.0,0.0,81,0.00,-RA,,0.00,0.0,WeatherDisplay:10.37,2013-01-23 04:44:00,
2013-01-22 22:49:00,-8.1,-12.4,30.08,WSW,242,0.0,0.0,81,0.00,-RA,,0.00,0.0,WeatherDisplay:10.37,2013-01-23 04:49:00,
2013-01-22 22:54:00,-7.9,-12.2,30.08,WSW,243,0.0,0.0,81,0.00,-RA,,0.00,0.0,WeatherDisplay:10.37,2013-01-23 04:54:00,
2013-01-22 22:59:00,-7.6,-11.9,30.08,WSW,243,3.5,3.5,81,0.00,-RA,,0.00,0.0,WeatherDisplay:10.37,2013-01-23 04:59:00,
2013-01-22 23:02:00,-7.5,-11.8,30.08,WSW,243,3.5,3.5,81,0.00,-RA,,0.00,0.0,WeatherDisplay:10.37,2013-01-23 05:02:00,
2013-01-22 23:03:00,-7.4,-11.7,30.08,WSW,243,0.0,0.0,81,0.00,-RA,,0.00,0.0,WeatherDisplay:10.37,2013-01-23 05:03:00,
2013-01-22 23:08:00,-7.1,-11.1,30.08,WSW,244,2.3,2.3,82,0.00,-RA,,0.00,0.0,WeatherDisplay:10.37,2013-01-23 05:08:00,
2013-01-22 23:13:00,-6.8,-10.9,30.08,WSW,244,3.5,3.5,82,0.00,-RA,,0.00,0.0,WeatherDisplay:10.37,2013-01-23 05:13:00,
2013-01-22 23:18:00,-6.5,-10.6,30.08,WSW,244,0.0,0.6,82,0.00,-RA,,0.00,0.0,WeatherDisplay:10.37,2013-01-23 05:18:00,
2013-01-22 23:23:00,-6.1,-10.2,30.08,WSW,244,3.5,3.5,82,0.00,-RA,,0.00,0.0,WeatherDisplay:10.37,2013-01-23 05:23:00,
2013-01-22 23:28:00,-5.8,-9.6,30.08,WSW,244,3.5,3.5,83,0.00,-RA,,0.00,0.0,WeatherDisplay:10.37,2013-01-23 05:28:00,
2013-01-22 23:33:00,-5.5,-9.3,30.08,WSW,245,0.0,0.0,83,0.00,-RA,,0.00,0.0,WeatherDisplay:10.37,2013-01-23 05:33:00,
2013-01-22 23:38:00,-5.3,-9.4,30.08,WSW,245,2.3,2.3,82,0.00,-RA,,0.00,0.0,WeatherDisplay:10.37,2013-01-23 05:38:00,
2013-01-22 23:43:00,-5.2,-9.3,30.08,WSW,245,0.0,0.0,82,0.00,-RA,,0.00,0.0,WeatherDisplay:10.37,2013-01-23 05:43:00,
2013-01-22 23:48:00,-5.1,-9.2,30.08,WSW,245,0.0,0.0,82,0.00,-RA,,0.00,0.0,WeatherDisplay:10.37,2013-01-23 05:48:00,
2013-01-22 23:53:00,-5.0,-9.1,30.08,WSW,245,2.3,2.3,82,0.00,-RA,,0.00,0.0,WeatherDisplay:10.37,2013-01-23 05:53:00,
2013-01-22 23:58:00,-5.0,-9.1,30.08,WSW,245,0.0,0.0,82,0.00,-RA,,0.00,0.0,WeatherDisplay:10.37,2013-01-23 05:58:00,